EDT,Max TemperatureF,Mean TemperatureF,Min TemperatureF,Max Dew PointF,MeanDew PointF,Min DewpointF,Max Humidity, Mean Humidity, Min Humidity, Max Sea Level PressureIn, Mean Sea Level PressureIn, Min Sea Level PressureIn, Max VisibilityMiles, Mean VisibilityMiles, Min VisibilityMiles, Max Wind SpeedMPH, Mean Wind SpeedMPH, Max Gust SpeedMPH,PrecipitationIn, CloudCover, Events, WindDirDegrees
2013-3-1,39,34,28,34,28,25,100,79,60,29.72,29.61,29.53,10,9,0,14,3,,0.00,7,Fog,311
2013-3-2,42,36,30,27,25,23,72,63,53,29.71,29.69,29.65,10,10,10,12,7,,0.00,7,,310
2013-3-3,39,34,30,31,27,22,93,76,65,29.68,29.62,29.56,10,9,2,12,6,,0.00,8,Rain-Snow,291
2013-3-4,39,34,28,27,22,19,80,65,47,29.78,29.67,29.60,10,9,3,21,13,29,0.00,6,Snow,299
2013-3-5,44,36,28,29,25,19,89,66,47,30.11,29.98,29.81,10,10,10,15,10,25,0.00,7,,347
2013-3-6,39,36,33,34,31,28,93,85,67,30.15,30.09,30.04,10,7,2,26,12,33,0.10,8,Rain-Snow,53
2013-3-7,34,32,30,32,28,25,100,88,75,30.11,30.04,29.99,10,3,1,21,16,31,0.02,8,Rain-Snow,8
2013-3-8,39,34,28,29,26,19,93,82,46,30.19,30.03,29.94,10,3,0,17,12,26,0.21,7,Fog-Snow,360
2013-3-9,46,35,24,29,22,17,96,67,35,30.40,30.30,30.19,10,9,1,15,6,,0.00,0,,34
2013-3-10,41,29,17,30,25,15,100,83,60,30.46,30.39,30.30,10,9,2,9,2,,0.00,2,,124
2013-3-11,52,42,33,39,33,30,93,78,50,30.35,30.26,30.14,10,10,10,13,6,,0.00,4,,194
2013-3-12,57,48,41,54,47,39,100,91,75,30.18,29.96,29.72,10,8,2,17,8,29,0.37,8,Rain,162
2013-3-13,51,43,33,48,29,16,88,60,29,29.82,29.78,29.73,10,10,10,16,10,22,0.00,2,,278
2013-3-14,37,28,21,22,12,4,66,48,35,29.88,29.80,29.71,10,10,10,21,11,33,0.00,5,,279
2013-3-15,39,28,18,25,10,1,72,47,22,29.91,29.80,29.68,10,10,9,18,11,28,0.00,4,Snow,274
2013-3-16,39,32,26,20,11,6,69,42,27,29.92,29.84,29.76,10,10,10,15,8,18,0.00,5,,305
2013-3-17,37,28,19,16,8,1,81,45,22,30.36,30.10,29.93,10,10,10,21,6,29,0.00,0,,324
2013-3-18,37,26,15,25,9,-1,88,50,23,30.51,30.38,30.25,10,8,1,13,5,,0.04,3,Rain-Snow,112
2013-3-19,34,31,27,34,29,23,100,93,85,30.24,29.84,29.62,10,2,0,22,11,30,0.79,8,Fog-Rain-Snow,40
2013-3-20,37,30,21,22,18,15,88,67,44,29.85,29.78,29.70,10,10,10,20,10,29,0.00,5,,258
2013-3-21,36,26,17,27,21,12,93,76,37,29.85,29.72,29.61,10,8,1,10,2,,0.00,6,Snow,120
2013-3-22,37,31,26,23,17,13,81,55,41,29.78,29.70,29.65,10,10,10,16,8,25,0.00,3,,280
2013-3-23,41,34,26,20,17,15,72,52,36,29.82,29.75,29.67,10,10,10,21,11,34,0.00,2,,277
2013-3-24,45,37,30,27,21,18,78,55,40,29.85,29.81,29.77,10,10,10,14,8,22,0.00,2,,299
2013-3-25,41,34,28,31,28,22,88,73,63,29.81,29.65,29.53,10,10,10,17,7,26,0.00,5,Rain,40
2013-3-26,50,42,34,26,22,17,70,51,27,29.82,29.69,29.54,10,10,10,15,8,18,0.00,5,,318
2013-3-27,54,38,25,30,22,19,81,50,28,29.91,29.83,29.78,10,10,10,16,6,24,0.00,3,,314
2013-3-28,48,40,35,34,31,26,93,73,46,30.05,29.96,29.87,10,10,10,13,7,,0.00,8,Rain,322
2013-3-29,55,42,28,32,29,25,92,58,31,30.08,30.05,30.00,10,10,10,13,4,22,0.00,5,Rain,292
2013-3-30,57,44,30,31,21,9,79,46,15,30.14,30.09,30.04,10,10,10,17,7,25,0.00,2,,306
2013-3-31,60,41,25,38,26,19,88,59,23,30.16,30.05,29.78,10,10,10,20,4,28,0.02,3,Rain,176